Time;durP1;ratioP1;P1;durP2;ratioP2;P2;SDS_P1;SDS_P2;PMS_P1;PMS_P2;Temp;Humidity;BMP_temperature;BMP_pressure;BME280_temperature;BME280_humidity;BME280_pressure;Samples;Min_cycle;Max_cycle;Signal;HPM_P1;HPM_P2
2023/05/14 05:01:26;;;;;;;;;48.00;39.50;;;;;14.86;66.53;101690.66;6182448;22;46244;-49
2023/05/14 05:03:51;;;;;;;;;53.50;41.00;;;;;14.92;66.33;101688.63;6214234;22;45577;-50
2023/05/14 05:06:17;;;;;;;;;52.00;44.00;;;;;14.98;66.22;101694.50;6243154;22;45406;-50
2023/05/14 05:08:42;;;;;;;;;53.50;44.25;;;;;14.96;66.58;101682.97;6243195;22;45358;-49
2023/05/14 05:11:07;;;;;;;;;52.25;43.75;;;;;14.92;66.68;101678.75;6244882;22;64352;-52
2023/05/14 05:13:33;;;;;;;;;53.25;41.25;;;;;14.91;67.05;101686.88;6242758;22;64315;-50
2023/05/14 05:15:58;;;;;;;;;52.25;41.75;;;;;14.93;66.97;101684.97;6245482;22;52552;-48
2023/05/14 05:18:24;;;;;;;;;55.75;43.25;;;;;14.97;66.28;101682.03;6245554;22;45286;-49
2023/05/14 05:20:50;;;;;;;;;56.00;44.25;;;;;14.97;66.17;101684.72;6244684;22;72411;-48
2023/05/14 05:23:15;;;;;;;;;50.50;42.50;;;;;15.05;66.41;101695.03;6245863;22;45263;-47
2023/05/14 05:25:41;;;;;;;;;53.75;43.75;;;;;15.10;66.41;101684.91;6245625;22;45284;-48
2023/05/14 05:28:06;;;;;;;;;56.50;43.75;;;;;15.12;66.49;101690.19;6217586;22;45173;-51
2023/05/14 05:30:31;;;;;;;;;58.00;45.00;;;;;15.11;66.08;101697.38;6216808;22;69702;-48
2023/05/14 05:32:57;;;;;;;;;54.00;44.00;;;;;15.12;66.17;101698.22;6217847;22;45239;-52
2023/05/14 05:35:22;;;;;;;;;52.75;42.75;;;;;15.15;67.41;101695.41;6219183;22;45301;-48
2023/05/14 05:37:47;;;;;;;;;56.50;45.50;;;;;15.20;66.56;101696.84;6217904;22;45594;-53
2023/05/14 05:40:13;;;;;;;;;55.75;46.00;;;;;15.21;65.71;101697.72;6244867;22;45991;-52
2023/05/14 05:42:39;;;;;;;;;52.50;43.75;;;;;15.21;65.71;101697.72;6244080;22;45301;-52
2023/05/14 05:45:05;;;;;;;;;58.25;44.50;;;;;15.25;65.85;101709.13;6216622;22;45339;-52
2023/05/14 05:47:31;;;;;;;;;61.50;46.75;;;;;15.25;65.22;101711.81;6243218;22;45339;-52
2023/05/14 05:49:56;;;;;;;;;58.00;47.00;;;;;15.24;65.28;101718.13;6244961;22;45550;-51
2023/05/14 05:52:21;;;;;;;;;57.75;45.75;;;;;15.23;65.80;101717.25;6218141;22;62528;-52
2023/05/14 05:54:46;;;;;;;;;51.75;42.75;;;;;15.22;65.59;101726.25;6216876;22;66820;-50
2023/05/14 05:57:12;;;;;;;;;57.50;45.75;;;;;15.19;65.96;101713.03;6245969;22;45219;-50
2023/05/14 05:59:37;;;;;;;;;55.00;42.50;;;;;15.22;66.20;101723.56;6216812;22;47009;-49
2023/05/14 06:02:03;;;;;;;;;54.25;42.00;;;;;15.21;65.31;101725.41;6244552;22;65189;-53
2023/05/14 06:04:28;;;;;;;;;55.00;42.75;;;;;15.22;65.31;101720.88;6246436;22;45196;-53
2023/05/14 06:06:54;;;;;;;;;56.00;44.75;;;;;15.24;65.16;101724.38;6192189;22;45434;-52
2023/05/14 06:09:20;;;;;;;;;57.50;42.75;;;;;15.28;65.49;101719.66;6245292;22;57719;-51
2023/05/14 06:11:45;;;;;;;;;53.00;44.25;;;;;15.29;65.62;101733.00;6216197;22;45250;-56
2023/05/14 06:14:10;;;;;;;;;53.25;42.50;;;;;15.28;65.09;101733.06;6244578;22;63313;-57
2023/05/14 06:16:36;;;;;;;;;56.75;44.50;;;;;15.28;65.27;101738.44;6217297;22;53141;-58
2023/05/14 06:19:01;;;;;;;;;51.50;41.25;;;;;15.28;65.57;101749.16;6245439;22;45297;-58
2023/05/14 06:21:26;;;;;;;;;55.50;44.00;;;;;15.28;65.12;101747.34;6218193;22;45298;-58
2023/05/14 06:23:52;;;;;;;;;53.25;43.25;;;;;15.25;65.34;101747.50;6217247;22;60263;-58
2023/05/14 06:26:17;;;;;;;;;49.75;41.75;;;;;15.19;65.20;101747.88;6244838;22;65365;-59
2023/05/14 06:28:43;;;;;;;;;58.25;45.00;;;;;15.16;65.18;101748.91;6244691;22;46343;-59
2023/05/14 06:31:08;;;;;;;;;57.75;47.00;;;;;15.15;65.18;101746.31;6245806;22;45450;-59
2023/05/14 06:33:33;;;;;;;;;55.75;46.25;;;;;15.19;65.36;101750.53;6245537;22;45246;-58
2023/05/14 06:35:59;;;;;;;;;62.75;47.00;;;;;15.25;65.57;101752.88;6217488;22;61159;-58
2023/05/14 06:38:25;;;;;;;;;61.00;47.50;;;;;15.22;65.37;101753.03;6245248;22;45490;-58
2023/05/14 06:40:52;;;;;;;;;57.00;46.25;;;;;15.21;65.69;101756.66;6217523;22;45325;-58
2023/05/14 06:43:17;;;;;;;;;55.75;44.50;;;;;15.23;64.85;101754.78;6245658;22;45298;-58
2023/05/14 06:45:42;;;;;;;;;57.50;46.25;;;;;15.18;65.58;101748.81;6217657;22;45446;-59
2023/05/14 06:48:08;;;;;;;;;55.75;44.00;;;;;15.21;65.52;101748.63;6244363;22;72673;-58
2023/05/14 06:50:34;;;;;;;;;60.25;47.75;;;;;15.36;65.09;101747.78;6245343;22;45278;-59
2023/05/14 06:53:00;;;;;;;;;62.25;49.00;;;;;15.41;64.97;101752.91;6246910;22;45113;-58
2023/05/14 06:55:25;;;;;;;;;62.00;48.50;;;;;15.36;64.89;101750.47;6218505;22;68517;-58
2023/05/14 06:57:50;;;;;;;;;58.50;47.25;;;;;15.39;65.27;101754.78;6245306;22;70745;-58
2023/05/14 07:00:16;;;;;;;;;60.25;48.25;;;;;15.36;65.11;101750.47;6246336;22;45232;-58
2023/05/14 07:02:41;;;;;;;;;62.50;46.50;;;;;15.39;64.64;101752.13;6245874;22;45160;-58
2023/05/14 07:05:07;;;;;;;;;59.50;46.25;;;;;15.39;64.65;101744.94;6220006;22;45717;-58
2023/05/14 07:07:32;;;;;;;;;61.75;49.75;;;;;15.41;64.83;101747.56;6246927;22;46115;-58
2023/05/14 07:09:58;;;;;;;;;56.00;44.25;;;;;15.48;64.23;101753.44;6246795;22;45137;-58
2023/05/14 07:12:23;;;;;;;;;59.75;47.00;;;;;15.45;64.73;101748.22;6218105;22;62978;-58
2023/05/14 07:14:49;;;;;;;;;60.75;47.75;;;;;15.37;64.64;101757.56;6217579;22;60681;-58
2023/05/14 07:17:14;;;;;;;;;55.50;42.25;;;;;15.39;64.78;101757.47;6219872;22;45970;-58
2023/05/14 07:19:40;;;;;;;;;52.75;43.50;;;;;15.39;64.32;101757.47;6245069;22;45263;-58
2023/05/14 07:22:05;;;;;;;;;55.25;43.75;;;;;15.46;64.33;101764.25;6246959;22;45943;-58
2023/05/14 07:24:30;;;;;;;;;60.50;45.25;;;;;15.46;64.36;101766.03;6245596;22;66257;-58
2023/05/14 07:26:56;;;;;;;;;57.75;44.25;;;;;15.43;64.69;101766.22;6245333;22;47618;-58
2023/05/14 07:29:23;;;;;;;;;55.75;42.75;;;;;15.43;64.88;101766.22;6218268;22;53441;-58
2023/05/14 07:31:49;;;;;;;;;57.00;44.00;;;;;15.34;64.97;101771.16;6246293;22;45153;-58
2023/05/14 07:34:14;;;;;;;;;55.67;45.33;;;;;15.28;64.93;101766.13;6219265;22;45345;-59
2023/05/14 07:36:40;;;;;;;;;57.75;44.50;;;;;15.28;64.56;101763.44;6218874;22;47020;-59
2023/05/14 07:39:05;;;;;;;;;52.50;42.50;;;;;15.33;64.56;101772.09;6246243;22;45248;-58
2023/05/14 07:41:30;;;;;;;;;52.75;40.75;;;;;15.37;64.12;101770.97;6246998;22;45224;-58
2023/05/14 07:43:56;;;;;;;;;51.50;41.00;;;;;15.34;64.21;101768.47;6218008;22;62410;-58
2023/05/14 07:46:22;;;;;;;;;58.75;43.25;;;;;15.32;64.32;101765.00;6246104;22;45339;-58
2023/05/14 07:48:48;;;;;;;;;55.67;42.67;;;;;15.33;64.60;101764.06;6245919;22;45337;-58
2023/05/14 07:51:13;;;;;;;;;53.00;42.75;;;;;15.35;64.52;101764.81;6219863;22;45429;-58
2023/05/14 07:53:38;;;;;;;;;53.33;42.67;;;;;15.36;64.13;101760.34;6217723;22;64476;-59
2023/05/14 07:56:04;;;;;;;;;55.25;44.75;;;;;15.41;64.25;101769.00;6217905;22;66244;-59
2023/05/14 07:58:29;;;;;;;;;56.00;45.33;;;;;15.48;64.05;101764.16;6219341;22;45363;-59
2023/05/14 08:00:55;;;;;;;;;51.67;39.67;;;;;15.61;63.66;101765.19;6192794;22;45395;-59
2023/05/14 08:03:21;;;;;;;;;47.33;37.67;;;;;15.73;63.30;101768.16;6219008;22;45633;-62
2023/05/14 08:05:46;;;;;;;;;50.00;39.00;;;;;15.77;62.87;101758.97;6218261;22;47113;-58
2023/05/14 08:08:11;;;;;;;;;51.67;39.67;;;;;15.79;62.59;101763.28;6244986;22;69885;-59
2023/05/14 08:10:37;;;;;;;;;48.33;39.67;;;;;15.80;62.52;101762.34;6245278;22;66382;-59
2023/05/14 08:13:02;;;;;;;;;51.00;40.33;;;;;15.84;62.56;101763.06;6219781;22;45297;-59
2023/05/14 08:15:28;;;;;;;;;49.33;40.00;;;;;15.94;62.33;101758.88;6245256;22;64744;-59
2023/05/14 08:17:53;;;;;;;;;52.33;40.33;;;;;16.07;62.20;101766.25;6193335;22;52934;-58
2023/05/14 08:20:18;;;;;;;;;53.00;42.00;;;;;16.16;61.81;101760.34;6245920;22;52600;-59
2023/05/14 08:22:44;;;;;;;;;47.67;39.00;;;;;16.17;61.03;101759.38;6218447;22;59071;-58
2023/05/14 08:25:09;;;;;;;;;46.67;38.00;;;;;16.13;61.10;101765.91;6245579;22;46197;-58
2023/05/14 08:27:34;;;;;;;;;49.00;41.00;;;;;16.16;60.87;101761.19;6217616;22;45176;-58
2023/05/14 08:30:00;;;;;;;;;47.67;38.33;;;;;16.15;61.13;101769.34;6246429;22;45161;-59
2023/05/14 08:32:25;;;;;;;;;47.33;39.67;;;;;16.17;61.09;101760.25;6246995;22;45281;-58
2023/05/14 08:34:51;;;;;;;;;50.67;38.67;;;;;16.25;60.79;101759.78;6245940;22;45935;-58
2023/05/14 08:37:16;;;;;;;;;52.00;41.00;;;;;16.32;61.15;101758.50;6245951;22;60700;-58
2023/05/14 08:39:42;;;;;;;;;47.67;39.33;;;;;16.41;60.92;101765.09;6245273;22;65263;-59
2023/05/14 08:42:11;;;;;;;;;50.67;39.33;;;;;16.46;60.70;101767.53;6246360;22;45382;-59
2023/05/14 08:45:03;;;;;;;;;56.67;43.00;;;;;16.43;60.90;101765.03;6217855;22;45307;-59
2023/05/14 08:47:29;;;;;;;;;31.33;27.33;;;;;16.43;60.75;101773.94;6244234;22;45409;-59
2023/05/14 08:50:03;;;;;;;;;50.67;40.00;;;;;16.41;60.32;101775.00;6245823;22;45231;-59
2023/05/14 08:52:29;;;;;;;;;47.33;38.33;;;;;16.31;60.19;101767.50;6193366;22;45512;-58
2023/05/14 08:54:55;;;;;;;;;45.00;36.33;;;;;16.17;60.82;101779.03;6245081;22;45843;-59
2023/05/14 08:57:23;;;;;;;;;47.67;37.67;;;;;16.12;60.52;101780.25;6193221;22;45324;-59
2023/05/14 08:59:49;;;;;;;;;49.00;39.00;;;;;16.04;60.38;101776.19;6243635;22;45743;-58
2023/05/14 09:02:16;;;;;;;;;44.67;37.67;;;;;16.01;61.13;101783.56;6243086;22;45464;-58
2023/05/14 09:04:42;;;;;;;;;53.00;41.67;;;;;16.03;61.41;101779.84;6216652;22;45680;-58
2023/05/14 09:07:07;;;;;;;;;45.67;38.00;;;;;16.14;60.73;101770.28;6245331;22;64941;-58
2023/05/14 09:09:33;;;;;;;;;46.00;38.00;;;;;16.26;61.12;101760.69;6219097;22;45276;-59
2023/05/14 09:12:00;;;;;;;;;48.67;40.33;;;;;16.45;60.26;101774.75;6246055;22;45324;-58
2023/05/14 09:14:25;;;;;;;;;50.00;38.33;;;;;16.52;59.95;101770.72;6192166;22;64353;-59
2023/05/14 09:16:50;;;;;;;;;52.00;41.00;;;;;16.57;60.40;101774.94;6244590;22;45612;-59
2023/05/14 09:19:17;;;;;;;;;49.00;39.67;;;;;16.69;59.32;101763.47;6218830;22;47970;-59
2023/05/14 09:21:44;;;;;;;;;53.67;42.00;;;;;16.70;59.13;101754.47;6218939;22;45233;-58
2023/05/14 09:24:18;;;;;;;;;52.67;42.00;;;;;16.73;59.05;101756.94;6246160;22;46463;-59
2023/05/14 09:26:43;;;;;;;;;44.67;37.00;;;;;16.74;59.55;101758.69;6245346;22;45268;-58
2023/05/14 09:29:08;;;;;;;;;53.67;41.00;;;;;16.80;59.25;101757.44;6218829;22;49719;-59
2023/05/14 09:31:36;;;;;;;;;52.33;42.67;;;;;16.84;59.33;101761.66;6217856;22;66001;-58
2023/05/14 09:34:03;;;;;;;;;45.67;38.00;;;;;16.89;59.29;101759.56;6246241;22;45364;-58
2023/05/14 09:36:28;;;;;;;;;56.00;43.33;;;;;16.92;59.27;101763.91;6218607;22;45318;-58
2023/05/14 09:38:57;;;;;;;;;49.67;42.33;;;;;16.98;59.22;101766.22;6245769;22;45457;-58
2023/05/14 09:41:23;;;;;;;;;56.00;44.33;;;;;17.06;59.02;101763.06;6246263;22;45366;-58
2023/05/14 09:43:49;;;;;;;;;53.33;42.00;;;;;17.10;59.00;101769.97;6217496;22;48040;-58
2023/05/14 09:46:15;;;;;;;;;50.00;40.67;;;;;17.16;57.88;101764.22;6218566;22;45292;-59
2023/05/14 09:48:40;;;;;;;;;53.67;42.33;;;;;17.10;57.92;101760.06;6244567;22;45394;-58
2023/05/14 09:51:05;;;;;;;;;56.00;44.67;;;;;17.15;58.63;101763.34;6217218;22;45205;-59
2023/05/14 09:53:32;;;;;;;;;55.33;44.00;;;;;17.25;57.96;101766.31;6245518;22;54709;-58
2023/05/14 09:55:57;;;;;;;;;48.00;40.67;;;;;17.39;58.13;101757.41;6216579;22;45341;-58
2023/05/14 09:58:22;;;;;;;;;50.00;41.67;;;;;17.56;57.81;101760.81;6243410;22;45209;-58
2023/05/14 10:00:49;;;;;;;;;49.00;39.67;;;;;17.68;56.97;101768.09;6244216;22;53565;-58
2023/05/14 10:03:15;;;;;;;;;54.67;42.67;;;;;17.71;56.60;101764.34;6216650;22;46423;-60
2023/05/14 10:05:41;;;;;;;;;55.00;41.33;;;;;17.73;56.50;101765.97;6244517;22;45226;-58
2023/05/14 10:08:17;;;;;;;;;49.00;39.33;;;;;17.79;56.78;101762.84;6218815;22;45236;-58
2023/05/14 10:10:42;;;;;;;;;53.00;42.00;;;;;17.94;56.70;101758.34;6244780;22;45399;-58
2023/05/14 10:13:20;;;;;;;;;45.67;39.00;;;;;18.19;56.09;101759.41;6217812;22;45375;-58
2023/05/14 10:15:58;;;;;;;;;50.00;41.00;;;;;18.50;55.42;101760.88;6217553;22;45564;-58
2023/05/14 10:18:24;;;;;;;;;45.00;38.33;;;;;18.70;54.49;101747.84;6245787;22;45169;-58
2023/05/14 10:21:00;;;;;;;;;54.00;42.33;;;;;18.78;54.18;101755.41;6217748;22;46499;-58
2023/05/14 10:23:25;;;;;;;;;51.67;42.00;;;;;18.94;54.22;101752.53;6217177;22;45688;-58
2023/05/14 10:25:51;;;;;;;;;50.33;39.00;;;;;19.24;54.08;101748.63;6188971;22;66010;-58
2023/05/14 10:28:16;;;;;;;;;54.33;39.00;;;;;19.53;51.78;101743.81;6243474;22;69927;-58
2023/05/14 10:30:45;;;;;;;;;50.67;41.33;;;;;19.76;51.72;101744.78;6216887;22;67419;-58
2023/05/14 10:33:14;;;;;;;;;52.67;39.33;;;;;20.03;50.73;101738.34;6218909;22;48176;-59
2023/05/14 10:36:03;;;;;;;;;46.33;38.33;;;;;20.28;49.82;101741.88;6217007;22;45400;-58
2023/05/14 10:38:31;;;;;;;;;42.67;35.00;;;;;20.39;49.25;101741.94;6245864;22;45758;-58
2023/05/14 10:40:58;;;;;;;;;44.33;37.67;;;;;20.46;50.03;101736.91;6217261;22;45514;-59
2023/05/14 10:43:29;;;;;;;;;47.67;38.67;;;;;20.49;49.46;101733.97;6218829;22;46328;-59
2023/05/14 10:45:55;;;;;;;;;47.67;37.00;;;;;20.48;49.98;101733.13;6217964;22;45265;-59
2023/05/14 10:48:21;;;;;;;;;45.00;37.67;;;;;20.66;50.06;101736.22;6244256;22;45378;-59
2023/05/14 10:50:47;;;;;;;;;47.00;37.67;;;;;21.09;49.35;101732.00;6217065;22;45571;-58
2023/05/14 10:53:12;;;;;;;;;41.33;35.67;;;;;21.46;49.16;101733.56;6217613;22;45440;-63
2023/05/14 10:55:38;;;;;;;;;44.33;38.00;;;;;21.76;48.18;101723.94;6244165;22;45574;-62
2023/05/14 10:58:04;;;;;;;;;48.67;38.00;;;;;21.94;48.30;101721.50;6219230;22;45342;-63
2023/05/14 11:00:32;;;;;;;;;43.33;35.00;;;;;22.18;47.58;101715.88;6216365;22;45560;-63
2023/05/14 11:02:59;;;;;;;;;38.67;33.00;;;;;22.62;45.62;101713.94;6217681;22;46480;-64
2023/05/14 11:05:26;;;;;;;;;41.33;36.33;;;;;22.74;46.74;101713.84;6246381;22;45652;-63
2023/05/14 11:07:55;;;;;;;;;46.00;37.33;;;;;22.99;45.75;101703.56;6246523;22;45323;-63
2023/05/14 11:10:22;;;;;;;;;44.33;36.00;;;;;23.36;45.16;101709.28;6218274;22;45676;-62
2023/05/14 11:12:49;;;;;;;;;36.67;32.67;;;;;23.57;45.54;101703.75;6245354;22;46311;-63
2023/05/14 11:15:20;;;;;;;;;47.33;39.67;;;;;23.65;43.72;101713.03;6245935;22;45303;-62
2023/05/14 11:17:46;;;;;;;;;42.00;36.33;;;;;23.61;44.37;101705.19;6246483;22;45236;-63
2023/05/14 11:20:12;;;;;;;;;42.67;36.00;;;;;23.66;43.91;101707.47;6245837;22;45348;-63
2023/05/14 11:22:39;;;;;;;;;38.67;33.33;;;;;23.71;42.94;101698.91;6245267;22;45322;-62
2023/05/14 11:25:05;;;;;;;;;46.33;39.00;;;;;23.93;43.14;101697.81;6246015;22;45332;-63
2023/05/14 11:27:33;;;;;;;;;42.33;35.33;;;;;24.33;43.12;101699.50;6216967;22;45349;-65
2023/05/14 11:29:59;;;;;;;;;41.67;35.33;;;;;24.71;42.70;101694.16;6242950;22;45417;-63
2023/05/14 11:32:25;;;;;;;;;42.67;36.33;;;;;25.09;42.16;101684.09;6218965;22;45298;-63
2023/05/14 11:34:50;;;;;;;;;42.00;34.33;;;;;25.60;41.51;101681.81;6192815;22;45317;-62
2023/05/14 11:37:16;;;;;;;;;41.33;35.67;;;;;26.06;41.25;101668.13;6217135;22;69135;-62
2023/05/14 11:39:49;;;;;;;;;42.33;34.00;;;;;27.71;38.52;101679.88;6245445;22;45260;-62
2023/05/14 11:42:17;;;;;;;;;40.67;34.67;;;;;29.48;37.50;101678.16;6219239;22;45340;-62
2023/05/14 11:44:43;;;;;;;;;41.33;34.67;;;;;30.80;33.77;101676.19;6244879;22;45311;-62
2023/05/14 11:47:09;;;;;;;;;42.67;35.33;;;;;31.12;34.01;101674.94;6194380;22;45222;-62
2023/05/14 11:49:36;;;;;;;;;40.00;33.67;;;;;30.76;31.72;101677.59;6246843;22;45160;-62
2023/05/14 11:52:04;;;;;;;;;38.00;33.33;;;;;30.40;33.84;101672.81;6219034;22;46183;-62
2023/05/14 11:54:30;;;;;;;;;37.00;32.33;;;;;31.40;32.39;101671.44;6244270;22;45212;-62
2023/05/14 11:56:57;;;;;;;;;40.67;32.67;;;;;31.80;31.55;101669.16;6217906;22;45270;-62
2023/05/14 11:59:30;;;;;;;;;37.67;32.67;;;;;32.12;31.90;101666.91;6246604;22;45327;-62
2023/05/14 12:01:56;;;;;;;;;37.00;32.33;;;;;33.25;31.33;101665.03;6193264;22;47045;-62
2023/05/14 12:04:21;;;;;;;;;32.00;30.67;;;;;35.01;29.60;101662.91;6219184;22;45268;-62
2023/05/14 12:06:51;;;;;;;;;41.33;35.00;;;;;35.98;28.42;101661.06;6246503;22;45239;-63
2023/05/14 12:09:20;;;;;;;;;30.00;27.00;;;;;36.78;26.91;101651.09;6247409;22;45413;-62
2023/05/14 12:11:46;;;;;;;;;37.67;33.00;;;;;36.10;26.31;101654.56;6192775;22;47166;-62
2023/05/14 12:14:22;;;;;;;;;42.33;36.00;;;;;35.25;25.02;101649.38;6245359;22;45327;-62
2023/05/14 12:16:48;;;;;;;;;39.67;35.00;;;;;34.40;26.23;101640.13;6246653;22;45319;-63
2023/05/14 12:19:14;;;;;;;;;38.00;33.67;;;;;33.32;26.73;101638.34;6217839;22;45428;-62
2023/05/14 12:21:42;;;;;;;;;35.33;32.67;;;;;32.36;27.85;101645.50;6218927;22;45509;-63
2023/05/14 12:24:12;;;;;;;;;39.00;34.33;;;;;31.59;27.88;101645.22;6218880;22;45266;-62
2023/05/14 12:26:38;;;;;;;;;37.33;33.00;;;;;30.88;29.59;101643.13;6246022;22;45367;-62
2023/05/14 12:29:03;;;;;;;;;32.67;30.00;;;;;30.28;29.89;101636.75;6245274;22;45228;-63
2023/05/14 12:31:32;;;;;;;;;39.00;33.00;;;;;29.61;30.70;101635.63;6246157;22;45124;-63
2023/05/14 12:33:57;;;;;;;;;38.67;31.67;;;;;28.75;30.93;101627.31;6244962;22;45326;-62
2023/05/14 12:36:23;;;;;;;;;36.33;32.33;;;;;28.02;31.86;101625.44;6245549;22;51603;-62
2023/05/14 12:38:49;;;;;;;;;36.67;31.67;;;;;27.46;32.51;101622.47;6217419;22;45539;-62
2023/05/14 12:41:14;;;;;;;;;31.33;30.33;;;;;26.98;33.40;101630.34;6246514;22;45408;-62
2023/05/14 12:43:43;;;;;;;;;35.67;32.67;;;;;26.71;34.36;101620.47;6245620;22;45289;-62
2023/05/14 12:46:09;;;;;;;;;34.33;31.33;;;;;26.44;33.86;101611.50;6244805;22;62243;-62
2023/05/14 12:48:34;;;;;;;;;42.00;32.33;;;;;26.20;34.87;101604.84;6218280;22;45210;-62
2023/05/14 12:51:00;;;;;;;;;36.67;31.33;;;;;26.12;35.37;101604.81;6244310;22;74334;-62
2023/05/14 12:53:25;;;;;;;;;39.00;32.00;;;;;26.07;35.83;101597.13;6245569;22;62932;-62
2023/05/14 12:55:51;;;;;;;;;40.33;34.33;;;;;25.88;35.64;101600.03;6217848;22;64773;-62
2023/05/14 12:58:16;;;;;;;;;30.33;27.00;;;;;25.70;36.12;101586.41;6246697;22;45215;-62
2023/05/14 13:00:41;;;;;;;;;34.67;31.67;;;;;25.50;36.58;101583.00;6245157;22;45971;-61
2023/05/14 13:03:07;;;;;;;;;37.00;31.67;;;;;25.36;36.61;101584.41;6218667;22;45288;-62
2023/05/14 13:05:32;;;;;;;;;38.33;33.00;;;;;25.24;36.95;101578.31;6218609;22;45381;-62
2023/05/14 13:07:59;;;;;;;;;33.67;31.00;;;;;25.20;37.65;101585.06;6217800;22;61118;-62
2023/05/14 13:10:24;;;;;;;;;38.33;32.67;;;;;25.20;37.24;101577.75;6245622;22;45757;-62
2023/05/14 13:12:51;;;;;;;;;36.33;29.67;;;;;25.12;37.78;101577.66;6243726;22;45263;-62
2023/05/14 13:15:17;;;;;;;;;36.00;33.00;;;;;25.04;37.87;101572.97;6245942;22;45199;-61
2023/05/14 13:17:42;;;;;;;;;30.00;28.33;;;;;24.99;37.82;101571.72;6244804;22;45231;-62
2023/05/14 13:20:08;;;;;;;;;30.33;30.00;;;;;24.80;37.52;101554.53;6244350;22;73506;-62
2023/05/14 13:22:33;;;;;;;;;26.00;25.00;;;;;24.61;38.22;101560.88;6245446;22;45220;-62
2023/05/14 13:24:59;;;;;;;;;33.67;30.33;;;;;24.55;38.74;101556.06;6244308;22;65309;-62
2023/05/14 13:27:25;;;;;;;;;42.33;31.33;;;;;24.75;38.57;101562.28;6246140;22;45252;-61
2023/05/14 13:29:50;;;;;;;;;32.00;30.33;;;;;24.59;38.74;101558.31;6217849;22;45517;-62
2023/05/14 13:32:16;;;;;;;;;30.33;27.33;;;;;24.62;38.70;101551.72;6232371;22;45569;-62
2023/05/14 13:34:42;;;;;;;;;28.67;26.67;;;;;24.60;38.70;101549.16;6214913;22;62442;-62
2023/05/14 13:37:08;;;;;;;;;30.00;28.67;;;;;24.64;38.86;101546.16;6245960;22;45474;-62
2023/05/14 13:39:33;;;;;;;;;29.33;27.67;;;;;24.61;38.64;101537.28;6245596;22;45227;-62
2023/05/14 13:41:59;;;;;;;;;24.67;24.00;;;;;24.63;38.85;101536.25;6244635;22;45507;-62
2023/05/14 13:44:25;;;;;;;;;31.67;30.00;;;;;24.64;38.85;101546.16;6216896;22;45348;-62
2023/05/14 13:46:51;;;;;;;;;28.67;26.33;;;;;24.65;38.93;101540.56;6217310;22;45225;-63
2023/05/14 13:49:16;;;;;;;;;27.33;27.00;;;;;24.60;38.38;101538.28;6244884;22;45378;-63
2023/05/14 13:51:42;;;;;;;;;25.33;25.33;;;;;24.58;39.18;101531.28;6244276;22;50696;-63
2023/05/14 13:54:07;;;;;;;;;24.33;23.33;;;;;24.59;39.18;101530.28;6243159;22;65737;-62
2023/05/14 13:56:32;;;;;;;;;32.00;30.00;;;;;24.61;39.06;101529.13;6245184;22;47992;-62
2023/05/14 13:58:58;;;;;;;;;28.67;27.00;;;;;24.66;38.76;101530.56;6241693;22;60630;-62
2023/05/14 14:01:23;;;;;;;;;27.33;25.67;;;;;24.58;39.00;101528.56;6243692;22;62349;-62
2023/05/14 14:03:48;;;;;;;;;25.67;25.67;;;;;24.52;39.23;101524.59;6217442;22;45236;-62
2023/05/14 14:06:14;;;;;;;;;27.33;25.00;;;;;24.48;39.49;101520.44;6219249;22;54549;-62
2023/05/14 14:08:39;;;;;;;;;24.00;23.67;;;;;24.48;39.21;101514.16;6245597;22;45264;-62
2023/05/14 14:11:04;;;;;;;;;23.00;21.00;;;;;24.49;39.14;101510.44;6246849;22;45247;-62
2023/05/14 14:13:30;;;;;;;;;22.67;22.67;;;;;24.56;38.73;101512.41;6218649;22;45317;-62
2023/05/14 14:15:55;;;;;;;;;24.67;21.67;;;;;24.49;38.70;101511.28;6245453;22;46327;-61
2023/05/14 14:18:20;;;;;;;;;25.67;24.00;;;;;24.45;38.87;101508.00;6244911;22;45551;-64
2023/05/14 14:20:46;;;;;;;;;25.00;22.33;;;;;24.52;39.03;101499.25;6244462;22;71039;-62
2023/05/14 14:23:11;;;;;;;;;26.33;21.00;;;;;24.60;39.19;101502.94;6246454;22;45291;-62
2023/05/14 14:25:37;;;;;;;;;21.00;21.00;;;;;24.65;39.28;101499.78;6245532;22;62692;-62
2023/05/14 14:28:02;;;;;;;;;21.33;21.33;;;;;24.67;38.65;101491.50;6243855;22;46061;-62
2023/05/14 14:30:27;;;;;;;;;20.67;20.67;;;;;24.59;38.50;101492.22;6243699;22;45284;-62
2023/05/14 14:32:53;;;;;;;;;25.67;24.33;;;;;24.47;38.08;101488.84;6244990;22;64133;-62
2023/05/14 14:35:19;;;;;;;;;23.33;22.00;;;;;24.33;38.33;101486.63;6246613;22;45358;-62
2023/05/14 14:37:48;;;;;;;;;22.67;22.33;;;;;24.26;39.05;101481.81;6246038;22;45398;-61
2023/05/14 14:40:14;;;;;;;;;22.00;20.00;;;;;24.33;38.43;101478.50;6246125;22;45294;-61
2023/05/14 14:42:39;;;;;;;;;19.67;18.00;;;;;24.33;38.01;101478.50;6218394;22;45368;-61
2023/05/14 14:45:05;;;;;;;;;22.00;21.67;;;;;24.27;38.43;101469.06;6245535;22;51282;-61
2023/05/14 14:47:30;;;;;;;;;21.67;18.67;;;;;24.23;38.42;101470.38;6245425;22;46187;-62
2023/05/14 14:49:56;;;;;;;;;25.00;23.67;;;;;24.20;38.44;101468.81;6217960;22;45253;-65
2023/05/14 14:52:23;;;;;;;;;19.67;18.00;;;;;24.21;38.49;101458.78;6247063;22;45295;-65
2023/05/14 14:54:48;;;;;;;;;18.33;17.00;;;;;24.27;38.57;101461.78;6193278;22;45318;-64
2023/05/14 14:57:13;;;;;;;;;19.00;18.67;;;;;24.32;38.43;101463.19;6246632;22;53433;-64
2023/05/14 14:59:39;;;;;;;;;23.00;20.00;;;;;24.32;38.81;101455.03;6245109;22;59697;-65
2023/05/14 15:02:05;;;;;;;;;20.00;19.67;;;;;24.40;38.66;101458.69;6246686;22;45389;-64
2023/05/14 15:04:32;;;;;;;;;20.67;19.33;;;;;24.47;38.43;101463.50;6219320;22;45385;-64
2023/05/14 15:06:58;;;;;;;;;20.00;16.00;;;;;24.46;38.17;101462.66;6245848;22;46032;-64
2023/05/14 15:09:23;;;;;;;;;23.00;20.00;;;;;24.47;38.16;101453.50;6219588;22;45499;-64
2023/05/14 15:11:49;;;;;;;;;15.00;14.00;;;;;24.51;37.76;101446.75;6244396;22;66762;-64
2023/05/14 15:14:14;;;;;;;;;23.00;18.67;;;;;24.55;37.57;101453.59;6246545;22;45143;-65
2023/05/14 15:16:40;;;;;;;;;23.67;21.00;;;;;24.56;37.86;101460.75;6245900;22;46415;-65
2023/05/14 15:19:06;;;;;;;;;9.67;9.00;;;;;24.49;37.04;101464.22;6245560;22;45196;-65
2023/05/14 15:21:31;;;;;;;;;20.33;19.00;;;;;24.44;37.71;101453.78;6247222;22;45088;-64
2023/05/14 15:23:56;;;;;;;;;15.00;15.00;;;;;24.50;37.61;101458.63;6245263;22;45219;-64
2023/05/14 15:26:22;;;;;;;;;18.33;17.33;;;;;24.62;37.48;101459.28;6245977;22;68307;-64
2023/05/14 15:28:47;;;;;;;;;20.33;19.00;;;;;24.70;37.01;101455.81;6243814;22;71434;-64
2023/05/14 15:31:12;;;;;;;;;17.00;17.00;;;;;24.75;36.69;101451.63;6245774;22;45303;-66
2023/05/14 15:33:40;;;;;;;;;18.00;17.67;;;;;24.82;37.02;101449.13;6218616;22;48651;-60
2023/05/14 15:36:05;;;;;;;;;14.67;14.67;;;;;24.85;36.07;101453.41;6246376;22;46968;-60
2023/05/14 15:38:31;;;;;;;;;16.00;16.00;;;;;24.82;36.14;101451.84;6219745;22;45344;-61
2023/05/14 15:40:56;;;;;;;;;15.33;15.33;;;;;24.79;35.45;101452.16;6246176;22;45316;-61
2023/05/14 15:43:21;;;;;;;;;17.33;13.33;;;;;24.72;35.41;101446.50;6218654;22;66964;-61
2023/05/14 15:45:48;;;;;;;;;18.00;17.00;;;;;24.61;34.91;101447.56;6246729;22;46189;-60
2023/05/14 15:48:13;;;;;;;;;14.67;14.67;;;;;24.51;35.58;101446.75;6244316;22;45287;-60
2023/05/14 15:50:38;;;;;;;;;16.00;16.00;;;;;24.44;36.06;101441.09;6246180;22;45326;-60
2023/05/14 15:53:04;;;;;;;;;16.33;16.00;;;;;24.39;35.92;101450.69;6246591;22;45418;-60
2023/05/14 15:55:29;;;;;;;;;18.67;16.67;;;;;24.35;35.30;101446.56;6247076;22;45452;-59
2023/05/14 15:57:55;;;;;;;;;16.00;16.00;;;;;24.36;35.51;101445.56;6219363;22;45456;-60
2023/05/14 16:00:20;;;;;;;;;19.33;18.67;;;;;24.36;36.04;101448.28;6245630;22;67341;-59
2023/05/14 16:02:45;;;;;;;;;18.67;15.33;;;;;24.37;36.14;101452.72;6217682;22;45270;-60
2023/05/14 16:05:12;;;;;;;;;15.67;15.67;;;;;24.41;35.87;101443.25;6246107;22;45529;-60